ITY1560 LIML-LIEE
Flight info
| Callsign | ITY1560 |
|---|---|
| Flight time | 1h 11m |
| Altitude | 39000 |
| Route | TOVSA7AXEKPAL6A/35 EKPAL DCT TINKU DCT ROMPO DCT VAVAX DCT LABOM DCT DEXUL Q125 KOVAS |
| Aircraft | A20N/M-SDE2E3FGHIRWXY/LB1 |
Departure
| Time | 2026-05-05 16:31 |
|---|---|
| Airport | Milano Linate Airport (LIML) |
Arrival
| Time | 2026-05-05 17:42 |
|---|---|
| Airport | Cagliari Elmas Airport (LIEE) |
| Time | Latitude | Longitude | Altitude | Speed | Heading |
|---|---|---|---|---|---|
| 2026-05-05 16:08 | 45.45970 | 9.28102 | 366 ft | 0 kts | 1° |
| 2026-05-05 16:20 | 45.45964 | 9.28102 | 369 ft | 3 kts | 1° |
| 2026-05-05 16:20 | 45.45927 | 9.28101 | 366 ft | 3 kts | 336° |
| 2026-05-05 16:21 | 45.45917 | 9.28112 | 369 ft | 0 kts | 282° |
| 2026-05-05 16:22 | 45.45919 | 9.28096 | 366 ft | 5 kts | 274° |
| 2026-05-05 16:23 | 45.45812 | 9.27984 | 366 ft | 16 kts | 180° |
| 2026-05-05 16:23 | 45.45683 | 9.27979 | 366 ft | 21 kts | 185° |
| 2026-05-05 16:23 | 45.45397 | 9.27948 | 365 ft | 18 kts | 209° |
| 2026-05-05 16:24 | 45.45258 | 9.27919 | 369 ft | 23 kts | 180° |
| 2026-05-05 16:24 | 45.45126 | 9.27921 | 363 ft | 12 kts | 183° |
| 2026-05-05 16:24 | 45.44898 | 9.27919 | 364 ft | 22 kts | 167° |
| 2026-05-05 16:25 | 45.44735 | 9.27955 | 367 ft | 26 kts | 175° |
| 2026-05-05 16:25 | 45.44315 | 9.28000 | 357 ft | 36 kts | 176° |
| 2026-05-05 16:25 | 45.44050 | 9.28040 | 357 ft | 31 kts | 177° |
| 2026-05-05 16:26 | 45.43745 | 9.28066 | 353 ft | 23 kts | 177° |
| 2026-05-05 16:26 | 45.43491 | 9.28080 | 352 ft | 3 kts | 190° |
| 2026-05-05 16:27 | 45.43461 | 9.28059 | 352 ft | 5 kts | 223° |
| 2026-05-05 16:27 | 45.43455 | 9.28047 | 355 ft | 0 kts | 239° |
| 2026-05-05 16:28 | 45.43455 | 9.28046 | 355 ft | 1 kts | 240° |
| 2026-05-05 16:28 | 45.43450 | 9.27998 | 355 ft | 9 kts | 268° |
| 2026-05-05 16:29 | 45.43450 | 9.27879 | 361 ft | 15 kts | 283° |
| 2026-05-05 16:29 | 45.43538 | 9.27811 | 354 ft | 9 kts | 356° |
| 2026-05-05 16:29 | 45.43540 | 9.27810 | 355 ft | 0 kts | 356° |
| 2026-05-05 16:30 | 45.43662 | 9.27798 | 362 ft | 56 kts | 356° |
| 2026-05-05 16:30 | 45.44353 | 9.27724 | 366 ft | 144 kts | 354° |
| 2026-05-05 16:30 | 45.45471 | 9.27570 | 936 ft | 168 kts | 355° |
| 2026-05-05 16:31 | 45.46684 | 9.27425 | 1748 ft | 188 kts | 353° |
| 2026-05-05 16:31 | 45.48057 | 9.27518 | 2241 ft | 211 kts | 19° |
| 2026-05-05 16:31 | 45.49203 | 9.28863 | 2846 ft | 222 kts | 58° |
| 2026-05-05 16:31 | 45.49575 | 9.31027 | 3511 ft | 233 kts | 93° |
| 2026-05-05 16:32 | 45.48989 | 9.33172 | 4317 ft | 237 kts | 127° |
| 2026-05-05 16:32 | 45.47639 | 9.34530 | 5025 ft | 249 kts | 160° |
| 2026-05-05 16:32 | 45.45896 | 9.34643 | 5906 ft | 258 kts | 191° |
| 2026-05-05 16:32 | 45.44268 | 9.33545 | 6864 ft | 263 kts | 215° |
| 2026-05-05 16:33 | 45.42823 | 9.31962 | 8036 ft | 261 kts | 206° |
| 2026-05-05 16:33 | 45.41057 | 9.31488 | 9082 ft | 267 kts | 171° |
| 2026-05-05 16:33 | 45.39304 | 9.32491 | 9959 ft | 281 kts | 147° |
| 2026-05-05 16:33 | 45.37686 | 9.34161 | 10472 ft | 303 kts | 143° |
| 2026-05-05 16:34 | 45.35929 | 9.36050 | 10815 ft | 328 kts | 144° |
| 2026-05-05 16:34 | 45.34018 | 9.38004 | 11397 ft | 345 kts | 146° |
| 2026-05-05 16:34 | 45.32010 | 9.39964 | 12167 ft | 354 kts | 147° |
| 2026-05-05 16:34 | 45.29950 | 9.41925 | 13024 ft | 359 kts | 148° |
| 2026-05-05 16:35 | 45.27850 | 9.43900 | 13890 ft | 364 kts | 148° |
| 2026-05-05 16:35 | 45.25717 | 9.45889 | 14684 ft | 368 kts | 149° |
| 2026-05-05 16:35 | 45.23563 | 9.47891 | 15523 ft | 371 kts | 149° |
| 2026-05-05 16:35 | 45.21391 | 9.49904 | 16346 ft | 374 kts | 149° |
| 2026-05-05 16:36 | 45.19204 | 9.51928 | 17161 ft | 378 kts | 149° |
| 2026-05-05 16:36 | 45.16989 | 9.53975 | 17954 ft | 382 kts | 149° |
| 2026-05-05 16:36 | 45.14752 | 9.56041 | 18590 ft | 386 kts | 150° |
| 2026-05-05 16:36 | 45.12476 | 9.58137 | 19183 ft | 391 kts | 150° |
| 2026-05-05 16:37 | 45.10213 | 9.60220 | 19806 ft | 395 kts | 150° |
| 2026-05-05 16:37 | 45.07826 | 9.62161 | 20387 ft | 397 kts | 156° |
| 2026-05-05 16:37 | 45.05330 | 9.63865 | 20989 ft | 400 kts | 158° |
| 2026-05-05 16:37 | 45.02791 | 9.65528 | 21597 ft | 404 kts | 158° |
| 2026-05-05 16:38 | 45.00223 | 9.67200 | 22194 ft | 408 kts | 159° |
| 2026-05-05 16:38 | 44.97631 | 9.68889 | 22799 ft | 413 kts | 159° |
| 2026-05-05 16:38 | 44.95009 | 9.70599 | 23348 ft | 417 kts | 159° |
| 2026-05-05 16:38 | 44.92355 | 9.72329 | 23839 ft | 422 kts | 159° |
| 2026-05-05 16:39 | 44.89681 | 9.74072 | 24323 ft | 425 kts | 159° |
| 2026-05-05 16:39 | 44.86989 | 9.75826 | 24810 ft | 427 kts | 159° |
| 2026-05-05 16:39 | 44.84282 | 9.77587 | 25287 ft | 430 kts | 159° |
| 2026-05-05 16:39 | 44.81559 | 9.79358 | 25768 ft | 432 kts | 159° |
| 2026-05-05 16:40 | 44.78818 | 9.81139 | 26228 ft | 435 kts | 159° |
| 2026-05-05 16:40 | 44.76056 | 9.82932 | 26666 ft | 437 kts | 159° |
| 2026-05-05 16:40 | 44.73313 | 9.84711 | 27066 ft | 440 kts | 159° |
| 2026-05-05 16:40 | 44.70505 | 9.86576 | 27579 ft | 443 kts | 157° |
| 2026-05-05 16:41 | 44.67887 | 9.88877 | 27955 ft | 457 kts | 145° |
| 2026-05-05 16:41 | 44.65502 | 9.91942 | 28161 ft | 471 kts | 139° |
| 2026-05-05 16:41 | 44.63209 | 9.95255 | 28548 ft | 474 kts | 137° |
| 2026-05-05 16:41 | 44.60924 | 9.98607 | 28948 ft | 476 kts | 137° |
| 2026-05-05 16:42 | 44.58625 | 10.01965 | 29386 ft | 477 kts | 137° |
| 2026-05-05 16:42 | 44.56311 | 10.05328 | 29796 ft | 479 kts | 137° |
| 2026-05-05 16:42 | 44.53997 | 10.08679 | 30247 ft | 478 kts | 138° |
| 2026-05-05 16:42 | 44.51673 | 10.12011 | 30618 ft | 477 kts | 139° |
| 2026-05-05 16:43 | 44.49190 | 10.15043 | 30918 ft | 471 kts | 148° |
| 2026-05-05 16:43 | 44.46436 | 10.17457 | 31323 ft | 460 kts | 158° |
| 2026-05-05 16:43 | 44.43597 | 10.19337 | 31808 ft | 453 kts | 161° |
| 2026-05-05 16:43 | 44.40713 | 10.21052 | 32153 ft | 450 kts | 163° |
| 2026-05-05 16:44 | 44.37787 | 10.22661 | 32464 ft | 450 kts | 164° |
| 2026-05-05 16:44 | 44.34862 | 10.24198 | 32834 ft | 449 kts | 165° |
| 2026-05-05 16:44 | 44.31937 | 10.25709 | 33246 ft | 448 kts | 165° |
| 2026-05-05 16:44 | 44.29011 | 10.27216 | 33631 ft | 447 kts | 166° |
| 2026-05-05 16:45 | 44.26097 | 10.28722 | 33997 ft | 446 kts | 166° |
| 2026-05-05 16:45 | 44.23187 | 10.30231 | 34270 ft | 446 kts | 166° |
| 2026-05-05 16:45 | 44.20278 | 10.31743 | 34581 ft | 446 kts | 165° |
| 2026-05-05 16:45 | 44.17409 | 10.33240 | 34868 ft | 446 kts | 165° |
| 2026-05-05 16:46 | 44.14466 | 10.34776 | 35135 ft | 446 kts | 165° |
| 2026-05-05 16:46 | 44.11592 | 10.36278 | 35389 ft | 447 kts | 165° |
| 2026-05-05 16:46 | 44.08678 | 10.37799 | 35636 ft | 447 kts | 164° |
| 2026-05-05 16:46 | 44.05766 | 10.39319 | 35929 ft | 447 kts | 164° |
| 2026-05-05 16:47 | 44.02857 | 10.40836 | 36185 ft | 447 kts | 164° |
| 2026-05-05 16:47 | 43.99947 | 10.42351 | 36451 ft | 447 kts | 164° |
| 2026-05-05 16:47 | 43.97035 | 10.43866 | 36659 ft | 447 kts | 164° |
| 2026-05-05 16:47 | 43.94108 | 10.45387 | 36873 ft | 447 kts | 164° |
| 2026-05-05 16:48 | 43.91185 | 10.46904 | 37104 ft | 447 kts | 164° |
| 2026-05-05 16:48 | 43.88274 | 10.48412 | 37380 ft | 447 kts | 164° |
| 2026-05-05 16:48 | 43.85366 | 10.49918 | 37620 ft | 446 kts | 163° |
| 2026-05-05 16:48 | 43.82486 | 10.51407 | 37847 ft | 446 kts | 163° |
| 2026-05-05 16:49 | 43.79541 | 10.52689 | 37953 ft | 442 kts | 171° |
| 2026-05-05 16:49 | 43.76531 | 10.53374 | 38162 ft | 433 kts | 179° |
| 2026-05-05 16:49 | 43.73549 | 10.53398 | 38358 ft | 425 kts | 189° |
| 2026-05-05 16:49 | 43.70642 | 10.52843 | 38652 ft | 419 kts | 193° |
| 2026-05-05 16:50 | 43.67791 | 10.52097 | 38861 ft | 417 kts | 194° |
| 2026-05-05 16:50 | 43.64954 | 10.51257 | 38971 ft | 417 kts | 195° |
| 2026-05-05 16:50 | 43.59260 | 10.49475 | 38985 ft | 419 kts | 195° |
| 2026-05-05 16:51 | 43.53581 | 10.47716 | 38972 ft | 418 kts | 195° |
| 2026-05-05 16:51 | 43.47899 | 10.45997 | 38983 ft | 418 kts | 195° |
| 2026-05-05 16:52 | 43.42216 | 10.44300 | 38980 ft | 418 kts | 195° |
| 2026-05-05 16:52 | 43.36538 | 10.42610 | 38978 ft | 417 kts | 195° |
| 2026-05-05 16:53 | 43.30859 | 10.40923 | 38970 ft | 417 kts | 195° |
| 2026-05-05 16:53 | 43.25227 | 10.39251 | 38970 ft | 416 kts | 195° |
| 2026-05-05 16:54 | 43.19564 | 10.37571 | 38971 ft | 416 kts | 195° |
| 2026-05-05 16:54 | 43.13901 | 10.35896 | 38964 ft | 416 kts | 196° |
| 2026-05-05 16:55 | 43.08247 | 10.34227 | 38969 ft | 415 kts | 196° |
| 2026-05-05 16:55 | 43.02597 | 10.32560 | 38969 ft | 415 kts | 196° |
| 2026-05-05 16:56 | 42.96943 | 10.30896 | 38969 ft | 415 kts | 196° |
| 2026-05-05 16:56 | 42.91327 | 10.29248 | 38968 ft | 414 kts | 196° |
| 2026-05-05 16:57 | 42.85688 | 10.27595 | 38961 ft | 414 kts | 196° |
| 2026-05-05 16:57 | 42.80054 | 10.25947 | 38963 ft | 414 kts | 196° |
| 2026-05-05 16:58 | 42.74415 | 10.24299 | 38950 ft | 414 kts | 196° |
| 2026-05-05 16:58 | 42.69739 | 10.22936 | 38960 ft | 413 kts | 196° |
| 2026-05-05 16:59 | 42.64117 | 10.21300 | 38963 ft | 413 kts | 196° |
| 2026-05-05 16:59 | 42.58496 | 10.19665 | 38961 ft | 413 kts | 195° |
| 2026-05-05 17:00 | 42.52872 | 10.18037 | 38957 ft | 412 kts | 195° |
| 2026-05-05 17:00 | 42.47301 | 10.16428 | 38963 ft | 411 kts | 195° |
| 2026-05-05 17:01 | 42.41708 | 10.14810 | 38961 ft | 411 kts | 195° |
| 2026-05-05 17:01 | 42.36105 | 10.13192 | 38957 ft | 411 kts | 195° |
| 2026-05-05 17:02 | 42.30500 | 10.11579 | 38958 ft | 411 kts | 195° |
| 2026-05-05 17:02 | 42.24899 | 10.09970 | 38955 ft | 411 kts | 195° |
| 2026-05-05 17:03 | 42.19322 | 10.08371 | 38957 ft | 411 kts | 195° |
| 2026-05-05 17:03 | 42.13718 | 10.06766 | 38951 ft | 412 kts | 195° |
| 2026-05-05 17:04 | 42.08105 | 10.05161 | 38959 ft | 412 kts | 195° |
| 2026-05-05 17:04 | 42.02494 | 10.03559 | 38955 ft | 412 kts | 195° |
| 2026-05-05 17:05 | 41.96875 | 10.01960 | 38956 ft | 412 kts | 195° |
| 2026-05-05 17:05 | 41.91262 | 10.00365 | 38955 ft | 412 kts | 195° |
| 2026-05-05 17:06 | 41.85674 | 9.98779 | 38958 ft | 413 kts | 195° |
| 2026-05-05 17:06 | 41.80052 | 9.97187 | 38952 ft | 413 kts | 195° |
| 2026-05-05 17:07 | 41.74431 | 9.95597 | 38946 ft | 413 kts | 195° |
| 2026-05-05 17:07 | 41.68810 | 9.94011 | 38952 ft | 413 kts | 195° |
| 2026-05-05 17:08 | 41.63187 | 9.92427 | 38958 ft | 413 kts | 195° |
| 2026-05-05 17:08 | 41.57552 | 9.90843 | 38957 ft | 413 kts | 195° |
| 2026-05-05 17:09 | 41.51919 | 9.89261 | 38960 ft | 414 kts | 195° |
| 2026-05-05 17:09 | 41.46306 | 9.87687 | 38961 ft | 415 kts | 195° |
| 2026-05-05 17:10 | 41.40652 | 9.86107 | 38963 ft | 415 kts | 195° |
| 2026-05-05 17:10 | 41.35000 | 9.84529 | 38948 ft | 415 kts | 195° |
| 2026-05-05 17:11 | 41.29340 | 9.82951 | 38972 ft | 416 kts | 195° |
| 2026-05-05 17:11 | 41.23698 | 9.81384 | 38960 ft | 413 kts | 195° |
| 2026-05-05 17:12 | 41.18068 | 9.79821 | 38961 ft | 413 kts | 195° |
| 2026-05-05 17:12 | 41.12442 | 9.78259 | 38956 ft | 414 kts | 195° |
| 2026-05-05 17:13 | 41.06962 | 9.76031 | 38967 ft | 411 kts | 202° |
| 2026-05-05 17:13 | 41.01621 | 9.73355 | 38967 ft | 409 kts | 204° |
| 2026-05-05 17:14 | 40.96362 | 9.70627 | 38967 ft | 408 kts | 204° |
| 2026-05-05 17:14 | 40.91072 | 9.67880 | 38963 ft | 409 kts | 204° |
| 2026-05-05 17:15 | 40.85752 | 9.65137 | 38965 ft | 410 kts | 203° |
| 2026-05-05 17:15 | 40.80436 | 9.62412 | 38967 ft | 410 kts | 203° |
| 2026-05-05 17:16 | 40.75101 | 9.59683 | 38967 ft | 410 kts | 203° |
| 2026-05-05 17:16 | 40.69808 | 9.56978 | 38967 ft | 411 kts | 203° |
| 2026-05-05 17:17 | 40.64474 | 9.54259 | 38969 ft | 411 kts | 203° |
| 2026-05-05 17:17 | 40.59136 | 9.51539 | 38971 ft | 411 kts | 203° |
| 2026-05-05 17:18 | 40.53795 | 9.48823 | 38970 ft | 411 kts | 203° |
| 2026-05-05 17:18 | 40.48455 | 9.46110 | 38969 ft | 411 kts | 203° |
| 2026-05-05 17:19 | 40.45845 | 9.44787 | 38776 ft | 403 kts | 203° |
| 2026-05-05 17:19 | 40.43186 | 9.43442 | 38076 ft | 407 kts | 203° |
| 2026-05-05 17:19 | 40.40576 | 9.42122 | 37483 ft | 406 kts | 203° |
| 2026-05-05 17:19 | 40.37942 | 9.40794 | 36931 ft | 405 kts | 203° |
| 2026-05-05 17:20 | 40.35312 | 9.39472 | 36384 ft | 404 kts | 203° |
| 2026-05-05 17:20 | 40.32698 | 9.38161 | 35817 ft | 402 kts | 203° |
| 2026-05-05 17:20 | 40.30079 | 9.36849 | 35207 ft | 403 kts | 202° |
| 2026-05-05 17:20 | 40.27461 | 9.35540 | 34576 ft | 404 kts | 203° |
| 2026-05-05 17:21 | 40.24824 | 9.34223 | 33913 ft | 405 kts | 202° |
| 2026-05-05 17:21 | 40.22179 | 9.32904 | 33176 ft | 406 kts | 202° |
| 2026-05-05 17:21 | 40.19535 | 9.31590 | 32485 ft | 405 kts | 202° |
| 2026-05-05 17:22 | 40.14263 | 9.28973 | 31071 ft | 406 kts | 202° |
| 2026-05-05 17:22 | 40.11653 | 9.27678 | 30346 ft | 406 kts | 203° |
| 2026-05-05 17:22 | 40.09006 | 9.26361 | 29483 ft | 407 kts | 203° |
| 2026-05-05 17:22 | 40.06362 | 9.25041 | 28703 ft | 406 kts | 203° |
| 2026-05-05 17:23 | 40.03732 | 9.23725 | 27886 ft | 406 kts | 203° |
| 2026-05-05 17:23 | 40.01089 | 9.22400 | 27053 ft | 406 kts | 203° |
| 2026-05-05 17:23 | 39.98451 | 9.21077 | 26193 ft | 408 kts | 203° |
| 2026-05-05 17:23 | 39.95792 | 9.19741 | 25395 ft | 410 kts | 203° |
| 2026-05-05 17:24 | 39.93136 | 9.18404 | 24782 ft | 407 kts | 203° |
| 2026-05-05 17:24 | 39.90501 | 9.17081 | 24141 ft | 403 kts | 202° |
| 2026-05-05 17:24 | 39.87894 | 9.15777 | 23487 ft | 400 kts | 203° |
| 2026-05-05 17:24 | 39.85262 | 9.14628 | 22743 ft | 398 kts | 199° |
| 2026-05-05 17:25 | 39.82617 | 9.13602 | 22103 ft | 393 kts | 198° |
| 2026-05-05 17:25 | 39.80888 | 9.12962 | 21686 ft | 390 kts | 197° |
| 2026-05-05 17:25 | 39.77389 | 9.11715 | 20824 ft | 389 kts | 197° |
| 2026-05-05 17:25 | 39.74778 | 9.10810 | 20169 ft | 388 kts | 196° |
| 2026-05-05 17:26 | 39.72204 | 9.09930 | 19523 ft | 386 kts | 195° |
| 2026-05-05 17:26 | 39.69602 | 9.09052 | 18856 ft | 384 kts | 194° |
| 2026-05-05 17:26 | 39.66982 | 9.08418 | 18182 ft | 385 kts | 185° |
| 2026-05-05 17:26 | 39.64305 | 9.08577 | 17438 ft | 387 kts | 170° |
| 2026-05-05 17:27 | 39.61757 | 9.09714 | 16722 ft | 390 kts | 154° |
| 2026-05-05 17:27 | 39.59410 | 9.11490 | 16021 ft | 389 kts | 149° |
| 2026-05-05 17:27 | 39.57144 | 9.13384 | 15347 ft | 386 kts | 148° |
| 2026-05-05 17:27 | 39.54904 | 9.15268 | 14680 ft | 382 kts | 148° |
| 2026-05-05 17:28 | 39.52667 | 9.17136 | 14004 ft | 381 kts | 149° |
| 2026-05-05 17:28 | 39.50438 | 9.18981 | 13285 ft | 380 kts | 149° |
| 2026-05-05 17:28 | 39.48212 | 9.20813 | 12608 ft | 377 kts | 149° |
| 2026-05-05 17:28 | 39.46036 | 9.22600 | 11959 ft | 374 kts | 149° |
| 2026-05-05 17:29 | 39.43849 | 9.24394 | 11306 ft | 370 kts | 149° |
| 2026-05-05 17:29 | 39.41679 | 9.26169 | 10669 ft | 367 kts | 148° |
| 2026-05-05 17:29 | 39.39583 | 9.27888 | 10481 ft | 342 kts | 148° |
| 2026-05-05 17:29 | 39.37668 | 9.29471 | 10385 ft | 312 kts | 148° |
| 2026-05-05 17:30 | 39.35909 | 9.30919 | 10305 ft | 290 kts | 148° |
| 2026-05-05 17:30 | 39.34238 | 9.32282 | 10221 ft | 279 kts | 148° |
| 2026-05-05 17:30 | 39.32617 | 9.33598 | 10093 ft | 270 kts | 148° |
| 2026-05-05 17:30 | 39.31031 | 9.34884 | 9791 ft | 270 kts | 148° |
| 2026-05-05 17:31 | 39.29444 | 9.36172 | 9409 ft | 269 kts | 148° |
| 2026-05-05 17:31 | 39.27861 | 9.37460 | 9076 ft | 268 kts | 148° |
| 2026-05-05 17:31 | 39.26311 | 9.38723 | 8704 ft | 267 kts | 148° |
| 2026-05-05 17:31 | 39.24742 | 9.40002 | 8321 ft | 265 kts | 148° |
| 2026-05-05 17:32 | 39.23193 | 9.41263 | 7992 ft | 261 kts | 148° |
| 2026-05-05 17:32 | 39.21693 | 9.42482 | 7901 ft | 249 kts | 148° |
| 2026-05-05 17:32 | 39.20262 | 9.43638 | 7811 ft | 237 kts | 148° |
| 2026-05-05 17:32 | 39.18888 | 9.44745 | 7652 ft | 230 kts | 148° |
| 2026-05-05 17:33 | 39.17520 | 9.45848 | 7322 ft | 233 kts | 148° |
| 2026-05-05 17:33 | 39.16145 | 9.46959 | 6980 ft | 234 kts | 148° |
| 2026-05-05 17:33 | 39.14690 | 9.47883 | 6641 ft | 232 kts | 165° |
| 2026-05-05 17:33 | 39.13120 | 9.47964 | 6327 ft | 225 kts | 192° |
| 2026-05-05 17:34 | 39.11759 | 9.47052 | 6008 ft | 221 kts | 221° |
| 2026-05-05 17:34 | 39.10945 | 9.45413 | 5713 ft | 219 kts | 249° |
| 2026-05-05 17:34 | 39.10700 | 9.43511 | 5437 ft | 219 kts | 261° |
| 2026-05-05 17:34 | 39.10622 | 9.41560 | 5158 ft | 216 kts | 263° |
| 2026-05-05 17:35 | 39.10572 | 9.39645 | 4846 ft | 212 kts | 263° |
| 2026-05-05 17:35 | 39.10521 | 9.37772 | 4541 ft | 207 kts | 263° |
| 2026-05-05 17:35 | 39.10468 | 9.35934 | 4234 ft | 202 kts | 263° |
| 2026-05-05 17:35 | 39.10414 | 9.34140 | 3952 ft | 199 kts | 263° |
| 2026-05-05 17:36 | 39.10357 | 9.32364 | 3684 ft | 199 kts | 263° |
| 2026-05-05 17:36 | 39.10297 | 9.30584 | 3498 ft | 199 kts | 262° |
| 2026-05-05 17:36 | 39.10235 | 9.28800 | 3297 ft | 199 kts | 263° |
| 2026-05-05 17:36 | 39.10172 | 9.27022 | 3087 ft | 199 kts | 262° |
| 2026-05-05 17:37 | 39.10102 | 9.25173 | 3003 ft | 213 kts | 263° |
| 2026-05-05 17:37 | 39.10131 | 9.23894 | 2975 ft | 216 kts | 272° |
| 2026-05-05 17:37 | 39.10932 | 9.21678 | 2721 ft | 201 kts | 307° |
| 2026-05-05 17:37 | 39.11891 | 9.20475 | 2673 ft | 182 kts | 313° |
| 2026-05-05 17:38 | 39.12798 | 9.19459 | 2687 ft | 168 kts | 314° |
| 2026-05-05 17:38 | 39.13692 | 9.18464 | 2692 ft | 172 kts | 315° |
| 2026-05-05 17:38 | 39.14657 | 9.17535 | 2528 ft | 172 kts | 316° |
| 2026-05-05 17:38 | 39.15543 | 9.16510 | 2307 ft | 171 kts | 313° |
| 2026-05-05 17:39 | 39.16435 | 9.15485 | 2067 ft | 172 kts | 314° |
| 2026-05-05 17:39 | 39.17320 | 9.14467 | 1837 ft | 172 kts | 314° |
| 2026-05-05 17:39 | 39.18212 | 9.13443 | 1612 ft | 172 kts | 314° |
| 2026-05-05 17:39 | 39.19099 | 9.12412 | 1372 ft | 172 kts | 313° |
| 2026-05-05 17:40 | 39.19962 | 9.11379 | 1099 ft | 167 kts | 316° |
| 2026-05-05 17:40 | 39.20858 | 9.10425 | 745 ft | 166 kts | 317° |
| 2026-05-05 17:40 | 39.21716 | 9.09442 | 483 ft | 163 kts | 314° |
| 2026-05-05 17:40 | 39.22547 | 9.08463 | 354 ft | 161 kts | 312° |
| 2026-05-05 17:41 | 39.23380 | 9.07493 | 209 ft | 161 kts | 313° |
| 2026-05-05 17:41 | 39.24212 | 9.06520 | 84 ft | 159 kts | 313° |
| 2026-05-05 17:41 | 39.24996 | 9.05599 | 26 ft | 147 kts | 314° |
| 2026-05-05 17:41 | 39.25625 | 9.04860 | 25 ft | 96 kts | 316° |
| 2026-05-05 17:42 | 39.25999 | 9.04457 | 23 ft | 47 kts | 326° |
| 2026-05-05 17:42 | 39.26125 | 9.04474 | 24 ft | 18 kts | 82° |
| 2026-05-05 17:42 | 39.26079 | 9.04616 | 25 ft | 18 kts | 134° |
| 2026-05-05 17:42 | 39.25988 | 9.04737 | 24 ft | 19 kts | 135° |
| 2026-05-05 17:43 | 39.25883 | 9.04857 | 25 ft | 21 kts | 139° |
| 2026-05-05 17:43 | 39.25770 | 9.04983 | 23 ft | 22 kts | 139° |
| 2026-05-05 17:43 | 39.25691 | 9.05071 | 23 ft | 23 kts | 139° |
| 2026-05-05 17:43 | 39.25565 | 9.05212 | 23 ft | 25 kts | 138° |
| 2026-05-05 17:44 | 39.25438 | 9.05369 | 22 ft | 26 kts | 120° |
| 2026-05-05 17:44 | 39.25388 | 9.05587 | 22 ft | 22 kts | 103° |
| 2026-05-05 17:44 | 39.25327 | 9.05691 | 22 ft | 10 kts | 136° |
| 2026-05-05 17:44 | 39.25290 | 9.05732 | 22 ft | 11 kts | 140° |
| 2026-05-05 17:45 | 39.25228 | 9.05798 | 22 ft | 12 kts | 140° |
| 2026-05-05 17:45 | 39.25163 | 9.05877 | 21 ft | 13 kts | 137° |
| 2026-05-05 17:45 | 39.25091 | 9.05963 | 21 ft | 15 kts | 137° |
| 2026-05-05 17:45 | 39.25024 | 9.06002 | 21 ft | 4 kts | 209° |
| 2026-05-05 17:46 | 39.25005 | 9.05976 | 21 ft | 0 kts | 229° |